sensor_id;sensor_type;location;lat;lon;timestamp;pressure;altitude;pressure_sealevel;temperature;humidity
7433;BME280;32233;49.500;7.764;2023-04-30T00:00:37;98891.53;;;9.78;100.00
7433;BME280;32233;49.500;7.764;2023-04-30T00:03:03;98883.59;;;9.78;100.00
7433;BME280;32233;49.500;7.764;2023-04-30T00:05:30;98887.41;;;9.75;100.00
7433;BME280;32233;49.500;7.764;2023-04-30T00:07:57;98891.88;;;9.75;100.00
7433;BME280;32233;49.500;7.764;2023-04-30T00:10:23;98888.38;;;9.67;100.00
7433;BME280;32233;49.500;7.764;2023-04-30T00:12:50;98895.75;;;9.57;100.00
7433;BME280;32233;49.500;7.764;2023-04-30T00:15:16;98886.38;;;9.40;100.00
7433;BME280;32233;49.500;7.764;2023-04-30T00:17:43;98892.13;;;9.43;100.00
7433;BME280;32233;49.500;7.764;2023-04-30T00:20:09;98889.75;;;9.49;100.00
7433;BME280;32233;49.500;7.764;2023-04-30T00:22:36;98882.03;;;9.47;100.00
7433;BME280;32233;49.500;7.764;2023-04-30T00:25:04;98885.13;;;9.36;100.00
7433;BME280;32233;49.500;7.764;2023-04-30T00:27:30;98887.03;;;9.27;100.00
7433;BME280;32233;49.500;7.764;2023-04-30T00:29:57;98883.91;;;9.38;100.00
7433;BME280;32233;49.500;7.764;2023-04-30T00:32:24;98881.72;;;9.57;100.00
7433;BME280;32233;49.500;7.764;2023-04-30T00:34:50;98885.94;;;9.51;100.00
7433;BME280;32233;49.500;7.764;2023-04-30T00:37:18;98887.72;;;9.51;100.00
7433;BME280;32233;49.500;7.764;2023-04-30T00:39:44;98892.38;;;9.49;100.00
7433;BME280;32233;49.500;7.764;2023-04-30T00:42:11;98888.19;;;9.54;100.00
7433;BME280;32233;49.500;7.764;2023-04-30T00:44:37;98891.56;;;9.48;100.00
7433;BME280;32233;49.500;7.764;2023-04-30T00:47:04;98892.19;;;9.50;100.00
7433;BME280;32233;49.500;7.764;2023-04-30T00:49:30;98889.75;;;9.49;100.00
7433;BME280;32233;49.500;7.764;2023-04-30T00:51:57;98888.84;;;9.41;100.00
7433;BME280;32233;49.500;7.764;2023-04-30T00:54:24;98894.13;;;9.41;100.00
7433;BME280;32233;49.500;7.764;2023-04-30T00:56:50;98892.56;;;9.32;100.00
7433;BME280;32233;49.500;7.764;2023-04-30T00:59:17;98890.31;;;9.44;100.00
7433;BME280;32233;49.500;7.764;2023-04-30T01:01:44;98891.66;;;9.40;100.00
7433;BME280;32233;49.500;7.764;2023-04-30T01:04:11;98889.19;;;9.38;100.00
7433;BME280;32233;49.500;7.764;2023-04-30T01:06:38;98888.75;;;9.50;99.68
7433;BME280;32233;49.500;7.764;2023-04-30T01:09:05;98880.91;;;9.56;98.57
7433;BME280;32233;49.500;7.764;2023-04-30T01:14:24;98876.84;;;9.39;99.84
7433;BME280;32233;49.500;7.764;2023-04-30T01:17:05;98872.94;;;9.35;100.00
7433;BME280;32233;49.500;7.764;2023-04-30T01:19:41;98880.38;;;9.31;100.00
7433;BME280;32233;49.500;7.764;2023-04-30T01:22:35;98879.66;;;9.37;100.00
7433;BME280;32233;49.500;7.764;2023-04-30T01:28:08;98869.81;;;9.46;100.00
7433;BME280;32233;49.500;7.764;2023-04-30T01:30:35;98872.84;;;9.43;100.00
7433;BME280;32233;49.500;7.764;2023-04-30T01:33:02;98869.94;;;9.23;100.00
7433;BME280;32233;49.500;7.764;2023-04-30T01:41:03;98873.66;;;9.29;100.00
7433;BME280;32233;49.500;7.764;2023-04-30T01:46:29;98880.56;;;9.30;100.00
7433;BME280;32233;49.500;7.764;2023-04-30T01:52:30;98887.47;;;9.16;100.00
7433;BME280;32233;49.500;7.764;2023-04-30T01:55:10;98888.66;;;9.13;100.00
7433;BME280;32233;49.500;7.764;2023-04-30T01:57:45;98889.38;;;9.07;100.00
7433;BME280;32233;49.500;7.764;2023-04-30T02:00:13;98890.56;;;9.05;100.00
7433;BME280;32233;49.500;7.764;2023-04-30T02:02:43;98884.19;;;8.99;100.00
7433;BME280;32233;49.500;7.764;2023-04-30T02:05:09;98886.63;;;9.01;100.00
7433;BME280;32233;49.500;7.764;2023-04-30T02:07:39;98884.47;;;9.04;100.00
7433;BME280;32233;49.500;7.764;2023-04-30T02:10:07;98875.91;;;9.17;100.00
7433;BME280;32233;49.500;7.764;2023-04-30T02:12:34;98875.09;;;9.16;100.00
7433;BME280;32233;49.500;7.764;2023-04-30T02:15:02;98873.75;;;9.35;100.00
7433;BME280;32233;49.500;7.764;2023-04-30T02:17:28;98872.63;;;9.30;100.00
7433;BME280;32233;49.500;7.764;2023-04-30T02:19:55;98870.56;;;9.25;100.00
7433;BME280;32233;49.500;7.764;2023-04-30T02:22:21;98867.38;;;9.30;100.00
7433;BME280;32233;49.500;7.764;2023-04-30T02:24:48;98864.91;;;9.28;100.00
7433;BME280;32233;49.500;7.764;2023-04-30T02:27:15;98875.09;;;9.16;100.00
7433;BME280;32233;49.500;7.764;2023-04-30T02:29:41;98875.91;;;9.17;100.00
7433;BME280;32233;49.500;7.764;2023-04-30T02:32:08;98875.66;;;9.12;100.00
7433;BME280;32233;49.500;7.764;2023-04-30T02:34:34;98890.19;;;9.08;100.00
7433;BME280;32233;49.500;7.764;2023-04-30T02:37:02;98885.53;;;9.10;100.00
7433;BME280;32233;49.500;7.764;2023-04-30T02:39:28;98888.66;;;9.13;100.00
7433;BME280;32233;49.500;7.764;2023-04-30T02:41:55;98886.19;;;9.12;100.00
7433;BME280;32233;49.500;7.764;2023-04-30T02:44:21;98888.09;;;9.03;100.00
7433;BME280;32233;49.500;7.764;2023-04-30T02:46:47;98883.91;;;9.09;100.00
7433;BME280;32233;49.500;7.764;2023-04-30T02:49:14;98885.84;;;9.15;100.00
7433;BME280;32233;49.500;7.764;2023-04-30T02:51:41;98887.13;;;9.19;100.00
7433;BME280;32233;49.500;7.764;2023-04-30T02:54:07;98887.59;;;9.23;100.00
7433;BME280;32233;49.500;7.764;2023-04-30T02:56:34;98885.00;;;9.29;100.00
7433;BME280;32233;49.500;7.764;2023-04-30T02:59:01;98882.94;;;9.25;100.00
7433;BME280;32233;49.500;7.764;2023-04-30T03:01:27;98888.75;;;9.20;100.00
7433;BME280;32233;49.500;7.764;2023-04-30T03:03:54;98881.91;;;9.26;100.00
7433;BME280;32233;49.500;7.764;2023-04-30T03:06:20;98892.19;;;9.21;99.14
7433;BME280;32233;49.500;7.764;2023-04-30T03:08:47;98878.41;;;9.18;99.25
7433;BME280;32233;49.500;7.764;2023-04-30T03:11:13;98873.03;;;9.27;100.00
7433;BME280;32233;49.500;7.764;2023-04-30T03:13:40;98886.47;;;9.32;98.43
7433;BME280;32233;49.500;7.764;2023-04-30T03:16:06;98881.31;;;9.24;99.35
7433;BME280;32233;49.500;7.764;2023-04-30T03:18:33;98874.41;;;9.23;99.59
7433;BME280;32233;49.500;7.764;2023-04-30T03:21:00;98877.09;;;9.29;100.00
7433;BME280;32233;49.500;7.764;2023-04-30T03:23:27;98875.81;;;9.25;100.00
7433;BME280;32233;49.500;7.764;2023-04-30T03:25:54;98876.84;;;9.24;99.76
7433;BME280;32233;49.500;7.764;2023-04-30T03:28:21;98871.09;;;9.35;98.75
7433;BME280;32233;49.500;7.764;2023-04-30T03:30:47;98867.19;;;9.31;99.67
7433;BME280;32233;49.500;7.764;2023-04-30T03:33:14;98865.53;;;9.30;97.95
7433;BME280;32233;49.500;7.764;2023-04-30T03:35:40;98865.53;;;9.30;98.69
7433;BME280;32233;49.500;7.764;2023-04-30T03:38:07;98874.81;;;9.26;98.78
7433;BME280;32233;49.500;7.764;2023-04-30T03:40:34;98865.13;;;9.27;98.65
7433;BME280;32233;49.500;7.764;2023-04-30T03:43:01;98863.66;;;9.24;98.47
7433;BME280;32233;49.500;7.764;2023-04-30T03:45:27;98870.19;;;9.13;99.47
7433;BME280;32233;49.500;7.764;2023-04-30T03:47:54;98871.28;;;9.19;100.00
7433;BME280;32233;49.500;7.764;2023-04-30T03:50:21;98871.91;;;9.21;98.35
7433;BME280;32233;49.500;7.764;2023-04-30T03:52:47;98873.53;;;9.22;98.17
7433;BME280;32233;49.500;7.764;2023-04-30T03:55:14;98862.84;;;9.24;98.77
7433;BME280;32233;49.500;7.764;2023-04-30T03:57:42;98868.47;;;9.21;100.00
7433;BME280;32233;49.500;7.764;2023-04-30T04:00:09;98861.81;;;9.25;98.33
7433;BME280;32233;49.500;7.764;2023-04-30T04:02:41;98872.66;;;9.15;99.69
7433;BME280;32233;49.500;7.764;2023-04-30T04:05:09;98867.47;;;9.22;100.00
7433;BME280;32233;49.500;7.764;2023-04-30T04:07:36;98872.28;;;9.18;100.00
7433;BME280;32233;49.500;7.764;2023-04-30T04:10:03;98870.19;;;9.13;100.00
7433;BME280;32233;49.500;7.764;2023-04-30T04:12:30;98868.38;;;9.14;100.00
7433;BME280;32233;49.500;7.764;2023-04-30T04:14:57;98871.84;;;9.14;99.88
7433;BME280;32233;49.500;7.764;2023-04-30T04:17:24;98870.66;;;9.17;100.00
7433;BME280;32233;49.500;7.764;2023-04-30T04:19:50;98881.47;;;9.22;100.00
7433;BME280;32233;49.500;7.764;2023-04-30T04:22:18;98878.09;;;9.13;100.00
7433;BME280;32233;49.500;7.764;2023-04-30T04:24:45;98874.09;;;9.17;100.00
7433;BME280;32233;49.500;7.764;2023-04-30T04:27:18;98880.94;;;9.12;100.00
7433;BME280;32233;49.500;7.764;2023-04-30T04:29:45;98883.28;;;9.07;100.00
7433;BME280;32233;49.500;7.764;2023-04-30T04:32:13;98880.38;;;9.16;100.00
7433;BME280;32233;49.500;7.764;2023-04-30T04:34:41;98883.56;;;9.12;99.92
7433;BME280;32233;49.500;7.764;2023-04-30T04:37:08;98879.84;;;9.06;100.00
7433;BME280;32233;49.500;7.764;2023-04-30T04:39:35;98884.38;;;9.12;100.00
7433;BME280;32233;49.500;7.764;2023-04-30T04:42:03;98876.56;;;9.19;100.00
7433;BME280;32233;49.500;7.764;2023-04-30T04:44:30;98877.13;;;9.14;100.00
7433;BME280;32233;49.500;7.764;2023-04-30T04:46:57;98870.19;;;9.13;100.00
7433;BME280;32233;49.500;7.764;2023-04-30T04:49:24;98877.66;;;9.25;100.00
7433;BME280;32233;49.500;7.764;2023-04-30T04:51:51;98879.38;;;9.17;99.08
7433;BME280;32233;49.500;7.764;2023-04-30T04:54:17;98872.09;;;9.20;100.00
7433;BME280;32233;49.500;7.764;2023-04-30T04:56:44;98875.91;;;9.17;99.36
7433;BME280;32233;49.500;7.764;2023-04-30T04:59:10;98879.84;;;9.21;99.31
7433;BME280;32233;49.500;7.764;2023-04-30T05:01:37;98877.47;;;9.26;100.00
7433;BME280;32233;49.500;7.764;2023-04-30T05:04:04;98878.00;;;9.22;98.86
7433;BME280;32233;49.500;7.764;2023-04-30T05:06:30;98876.75;;;9.32;99.02
7433;BME280;32233;49.500;7.764;2023-04-30T05:08:58;98882.03;;;9.47;96.82
7433;BME280;32233;49.500;7.764;2023-04-30T05:11:24;98882.75;;;9.56;96.76
7433;BME280;32233;49.500;7.764;2023-04-30T05:13:51;98877.56;;;9.48;96.89
7433;BME280;32233;49.500;7.764;2023-04-30T05:16:17;98884.56;;;9.55;98.10
7433;BME280;32233;49.500;7.764;2023-04-30T05:18:44;98878.78;;;9.81;95.03
7433;BME280;32233;49.500;7.764;2023-04-30T05:21:10;98884.50;;;9.85;93.83
7433;BME280;32233;49.500;7.764;2023-04-30T05:23:37;98887.53;;;9.67;94.98
7433;BME280;32233;49.500;7.764;2023-04-30T05:26:03;98880.81;;;9.64;95.64
7433;BME280;32233;49.500;7.764;2023-04-30T05:28:30;98878.91;;;9.58;95.61
7433;BME280;32233;49.500;7.764;2023-04-30T05:30:57;98891.47;;;9.56;95.41
7433;BME280;32233;49.500;7.764;2023-04-30T05:33:23;98889.38;;;9.52;95.99
7433;BME280;32233;49.500;7.764;2023-04-30T05:35:50;98888.19;;;9.69;93.78
7433;BME280;32233;49.500;7.764;2023-04-30T05:38:16;98890.16;;;9.67;94.71
7433;BME280;32233;49.500;7.764;2023-04-30T05:40:43;98888.38;;;9.67;93.40
7433;BME280;32233;49.500;7.764;2023-04-30T05:43:09;98896.25;;;9.82;93.79
7433;BME280;32233;49.500;7.764;2023-04-30T05:45:35;98892.91;;;9.74;93.43
7433;BME280;32233;49.500;7.764;2023-04-30T05:48:02;98884.28;;;10.01;93.01
7433;BME280;32233;49.500;7.764;2023-04-30T05:50:29;98885.66;;;10.18;93.56
7433;BME280;32233;49.500;7.764;2023-04-30T05:52:55;98886.22;;;10.29;92.63
7433;BME280;32233;49.500;7.764;2023-04-30T05:55:22;98886.34;;;10.42;91.88
7433;BME280;32233;49.500;7.764;2023-04-30T05:57:48;98884.63;;;10.56;89.90
7433;BME280;32233;49.500;7.764;2023-04-30T06:00:15;98889.53;;;10.59;89.36
7433;BME280;32233;49.500;7.764;2023-04-30T06:02:42;98891.66;;;10.49;89.45
7433;BME280;32233;49.500;7.764;2023-04-30T06:05:08;98889.09;;;10.55;90.84
7433;BME280;32233;49.500;7.764;2023-04-30T06:07:35;98882.34;;;10.53;88.52
7433;BME280;32233;49.500;7.764;2023-04-30T06:10:02;98889.72;;;10.79;87.81
7433;BME280;32233;49.500;7.764;2023-04-30T06:12:28;98898.69;;;10.84;84.78
7433;BME280;32233;49.500;7.764;2023-04-30T06:14:55;98896.09;;;10.91;87.76
7433;BME280;32233;49.500;7.764;2023-04-30T06:17:21;98890.50;;;11.42;84.12
7433;BME280;32233;49.500;7.764;2023-04-30T06:19:48;98887.78;;;11.70;81.42
7433;BME280;32233;49.500;7.764;2023-04-30T06:22:14;98891.19;;;11.99;79.25
7433;BME280;32233;49.500;7.764;2023-04-30T06:24:41;98885.38;;;12.50;87.84
7433;BME280;32233;49.500;7.764;2023-04-30T06:27:07;98887.81;;;13.11;74.20
7433;BME280;32233;49.500;7.764;2023-04-30T06:29:34;98883.16;;;14.48;66.76
7433;BME280;32233;49.500;7.764;2023-04-30T06:32:00;98890.09;;;12.94;74.70
7433;BME280;32233;49.500;7.764;2023-04-30T06:34:27;98889.94;;;11.88;76.18
7433;BME280;32233;49.500;7.764;2023-04-30T06:36:53;98890.22;;;12.20;75.17
7433;BME280;32233;49.500;7.764;2023-04-30T06:39:20;98880.63;;;12.12;76.34
7433;BME280;32233;49.500;7.764;2023-04-30T06:41:46;98881.19;;;13.60;72.59
7433;BME280;32233;49.500;7.764;2023-04-30T06:44:13;98880.72;;;13.70;67.73
7433;BME280;32233;49.500;7.764;2023-04-30T06:46:40;98892.56;;;13.74;69.02
7433;BME280;32233;49.500;7.764;2023-04-30T06:49:06;98890.53;;;14.14;67.97
7433;BME280;32233;49.500;7.764;2023-04-30T06:51:33;98883.16;;;14.98;62.19
7433;BME280;32233;49.500;7.764;2023-04-30T06:53:59;98888.41;;;15.29;61.06
7433;BME280;32233;49.500;7.764;2023-04-30T06:56:26;98886.00;;;16.55;57.15
7433;BME280;32233;49.500;7.764;2023-04-30T06:58:52;98875.31;;;17.84;52.82
7433;BME280;32233;49.500;7.764;2023-04-30T07:01:19;98883.34;;;18.13;51.75
7433;BME280;32233;49.500;7.764;2023-04-30T07:03:45;98875.31;;;19.69;47.51
7433;BME280;32233;49.500;7.764;2023-04-30T07:06:12;98877.59;;;19.22;48.15
7433;BME280;32233;49.500;7.764;2023-04-30T07:08:39;98871.50;;;19.26;48.29
7433;BME280;32233;49.500;7.764;2023-04-30T07:11:06;98864.50;;;20.40;44.87
7433;BME280;32233;49.500;7.764;2023-04-30T07:13:33;98865.50;;;20.61;43.91
7433;BME280;32233;49.500;7.764;2023-04-30T07:15:59;98872.97;;;19.56;46.36
7433;BME280;32233;49.500;7.764;2023-04-30T07:18:26;98866.78;;;20.86;43.75
7433;BME280;32233;49.500;7.764;2023-04-30T07:20:53;98867.91;;;20.31;44.72
7433;BME280;32233;49.500;7.764;2023-04-30T07:23:20;98865.06;;;19.44;46.81
7433;BME280;32233;49.500;7.764;2023-04-30T07:25:47;98864.78;;;20.39;46.10
7433;BME280;32233;49.500;7.764;2023-04-30T07:28:13;98874.00;;;20.80;46.73
7433;BME280;32233;49.500;7.764;2023-04-30T07:30:40;98868.69;;;18.03;51.00
7433;BME280;32233;49.500;7.764;2023-04-30T07:33:06;98871.50;;;17.56;54.00
7433;BME280;32233;49.500;7.764;2023-04-30T07:35:35;98880.53;;;17.67;54.23
7433;BME280;32233;49.500;7.764;2023-04-30T07:38:01;98877.13;;;16.73;56.44
7433;BME280;32233;49.500;7.764;2023-04-30T07:40:28;98872.94;;;17.36;55.31
7433;BME280;32233;49.500;7.764;2023-04-30T07:43:00;98877.78;;;18.02;52.97
7433;BME280;32233;49.500;7.764;2023-04-30T07:45:26;98871.09;;;18.96;50.19
7433;BME280;32233;49.500;7.764;2023-04-30T07:47:52;98877.94;;;18.41;48.82
7433;BME280;32233;49.500;7.764;2023-04-30T07:50:19;98863.78;;;19.69;46.39
7433;BME280;32233;49.500;7.764;2023-04-30T07:52:48;98873.91;;;18.89;48.53
7433;BME280;32233;49.500;7.764;2023-04-30T07:55:14;98862.75;;;20.51;46.90
7433;BME280;32233;49.500;7.764;2023-04-30T07:57:41;98867.16;;;20.08;42.41
7433;BME280;32233;49.500;7.764;2023-04-30T08:00:08;98868.53;;;19.45;47.77
7433;BME280;32233;49.500;7.764;2023-04-30T08:02:40;98870.50;;;17.86;50.73
7433;BME280;32233;49.500;7.764;2023-04-30T08:05:09;98868.88;;;19.70;46.20
7433;BME280;32233;49.500;7.764;2023-04-30T08:07:36;98869.59;;;19.05;45.16
7433;BME280;32233;49.500;7.764;2023-04-30T08:10:03;98857.53;;;20.39;43.63
7433;BME280;32233;49.500;7.764;2023-04-30T08:12:29;98871.97;;;20.33;45.06
7433;BME280;32233;49.500;7.764;2023-04-30T08:15:01;98857.66;;;20.49;42.53
7433;BME280;32233;49.500;7.764;2023-04-30T08:17:28;98864.94;;;19.78;43.87
7433;BME280;32233;49.500;7.764;2023-04-30T08:19:55;98869.31;;;20.65;43.56
7433;BME280;32233;49.500;7.764;2023-04-30T08:22:22;98871.88;;;20.50;44.18
7433;BME280;32233;49.500;7.764;2023-04-30T08:24:48;98863.72;;;20.13;44.71
7433;BME280;32233;49.500;7.764;2023-04-30T08:27:15;98872.19;;;20.26;44.33
7433;BME280;32233;49.500;7.764;2023-04-30T08:29:42;98879.19;;;19.01;45.54
7433;BME280;32233;49.500;7.764;2023-04-30T08:32:08;98881.59;;;18.52;46.74
7433;BME280;32233;49.500;7.764;2023-04-30T08:34:35;98873.56;;;18.52;47.49
7433;BME280;32233;49.500;7.764;2023-04-30T08:37:01;98865.78;;;18.50;45.52
7433;BME280;32233;49.500;7.764;2023-04-30T08:39:28;98884.56;;;17.06;48.66
7433;BME280;32233;49.500;7.764;2023-04-30T08:41:55;98870.53;;;17.11;51.48
7433;BME280;32233;49.500;7.764;2023-04-30T08:44:22;98877.97;;;17.72;49.94
7433;BME280;32233;49.500;7.764;2023-04-30T08:46:53;98871.47;;;18.37;47.56
7433;BME280;32233;49.500;7.764;2023-04-30T08:49:23;98873.53;;;17.90;50.03
7433;BME280;32233;49.500;7.764;2023-04-30T08:51:51;98875.00;;;17.45;48.01
7433;BME280;32233;49.500;7.764;2023-04-30T08:54:18;98867.53;;;17.99;45.92
7433;BME280;32233;49.500;7.764;2023-04-30T08:56:50;98865.94;;;17.98;45.62
7433;BME280;32233;49.500;7.764;2023-04-30T08:59:17;98858.53;;;18.17;45.15
7433;BME280;32233;49.500;7.764;2023-04-30T09:01:44;98859.56;;;17.88;46.88
7433;BME280;32233;49.500;7.764;2023-04-30T09:04:11;98861.97;;;18.01;46.68
7433;BME280;32233;49.500;7.764;2023-04-30T09:06:37;98851.75;;;18.43;46.90
7433;BME280;32233;49.500;7.764;2023-04-30T09:09:12;98862.25;;;17.88;48.55
7433;BME280;32233;49.500;7.764;2023-04-30T09:11:39;98858.72;;;18.44;45.90
7433;BME280;32233;49.500;7.764;2023-04-30T09:14:06;98856.59;;;18.13;45.67
7433;BME280;32233;49.500;7.764;2023-04-30T09:16:47;98860.06;;;17.85;45.02
7433;BME280;32233;49.500;7.764;2023-04-30T09:19:27;98853.19;;;18.17;43.28
7433;BME280;32233;49.500;7.764;2023-04-30T09:21:55;98865.84;;;17.29;43.86
7433;BME280;32233;49.500;7.764;2023-04-30T09:24:22;98858.34;;;17.67;44.70
7433;BME280;32233;49.500;7.764;2023-04-30T09:26:50;98857.28;;;16.92;46.06
7433;BME280;32233;49.500;7.764;2023-04-30T09:29:16;98863.91;;;17.01;44.46
7433;BME280;32233;49.500;7.764;2023-04-30T09:31:45;98874.13;;;17.04;46.19
7433;BME280;32233;49.500;7.764;2023-04-30T09:34:13;98870.19;;;17.59;45.11
7433;BME280;32233;49.500;7.764;2023-04-30T09:36:52;98863.94;;;17.65;41.70
7433;BME280;32233;49.500;7.764;2023-04-30T09:39:22;98874.53;;;16.66;42.81
7433;BME280;32233;49.500;7.764;2023-04-30T09:41:49;98865.81;;;15.87;45.23
7433;BME280;32233;49.500;7.764;2023-04-30T09:44:30;98868.66;;;15.55;47.66
7433;BME280;32233;49.500;7.764;2023-04-30T09:46:57;98868.28;;;15.52;47.99
7433;BME280;32233;49.500;7.764;2023-04-30T09:49:25;98867.91;;;15.11;49.83
7433;BME280;32233;49.500;7.764;2023-04-30T09:51:57;98862.59;;;15.30;49.12
7433;BME280;32233;49.500;7.764;2023-04-30T09:54:30;98863.53;;;15.17;49.41
7433;BME280;32233;49.500;7.764;2023-04-30T09:56:59;98868.91;;;14.92;50.53
7433;BME280;32233;49.500;7.764;2023-04-30T09:59:33;98861.53;;;14.94;49.79
7433;BME280;32233;49.500;7.764;2023-04-30T10:02:06;98860.94;;;14.67;51.68
7433;BME280;32233;49.500;7.764;2023-04-30T10:04:38;98863.31;;;14.75;50.52
7433;BME280;32233;49.500;7.764;2023-04-30T10:07:08;98860.06;;;14.73;50.59
7433;BME280;32233;49.500;7.764;2023-04-30T10:09:40;98862.00;;;14.84;51.98
7433;BME280;32233;49.500;7.764;2023-04-30T10:12:14;98857.34;;;14.80;51.00
7433;BME280;32233;49.500;7.764;2023-04-30T10:14:47;98859.13;;;14.61;50.74
7433;BME280;32233;49.500;7.764;2023-04-30T10:17:17;98857.59;;;14.53;49.87
7433;BME280;32233;49.500;7.764;2023-04-30T10:19:47;98858.50;;;14.66;50.75
7433;BME280;32233;49.500;7.764;2023-04-30T10:22:16;98851.88;;;14.50;51.53
7433;BME280;32233;49.500;7.764;2023-04-30T10:24:47;98851.72;;;14.70;52.80
7433;BME280;32233;49.500;7.764;2023-04-30T10:27:13;98853.06;;;14.54;54.02
7433;BME280;32233;49.500;7.764;2023-04-30T10:29:40;98846.59;;;14.68;53.82
7433;BME280;32233;49.500;7.764;2023-04-30T10:32:10;98843.63;;;15.01;54.86
7433;BME280;32233;49.500;7.764;2023-04-30T10:34:54;98849.84;;;14.95;57.27
7433;BME280;32233;49.500;7.764;2023-04-30T10:39:52;98841.66;;;15.15;55.81
7433;BME280;32233;49.500;7.764;2023-04-30T10:42:19;98836.41;;;15.27;57.29
7433;BME280;32233;49.500;7.764;2023-04-30T10:44:45;98836.72;;;15.19;54.55
7433;BME280;32233;49.500;7.764;2023-04-30T10:47:12;98834.75;;;15.63;53.45
7433;BME280;32233;49.500;7.764;2023-04-30T10:49:44;98827.06;;;16.03;54.90
7433;BME280;32233;49.500;7.764;2023-04-30T10:52:13;98829.72;;;16.03;52.71
7433;BME280;32233;49.500;7.764;2023-04-30T10:54:48;98822.50;;;15.43;52.30
7433;BME280;32233;49.500;7.764;2023-04-30T10:57:16;98818.69;;;15.99;51.71
7433;BME280;32233;49.500;7.764;2023-04-30T10:59:53;98812.06;;;16.44;50.16
7433;BME280;32233;49.500;7.764;2023-04-30T11:02:41;98817.94;;;16.76;48.38
7433;BME280;32233;49.500;7.764;2023-04-30T11:07:55;98819.00;;;16.75;48.13
7433;BME280;32233;49.500;7.764;2023-04-30T11:10:27;98801.09;;;16.75;50.53
7433;BME280;32233;49.500;7.764;2023-04-30T11:12:57;98810.56;;;17.18;49.57
7433;BME280;32233;49.500;7.764;2023-04-30T11:15:42;98820.25;;;16.19;48.24
7433;BME280;32233;49.500;7.764;2023-04-30T11:18:12;98812.63;;;15.80;51.12
7433;BME280;32233;49.500;7.764;2023-04-30T11:20:40;98823.97;;;15.76;49.59
7433;BME280;32233;49.500;7.764;2023-04-30T11:23:09;98809.97;;;15.80;49.53
7433;BME280;32233;49.500;7.764;2023-04-30T11:25:41;98812.78;;;15.67;48.89
7433;BME280;32233;49.500;7.764;2023-04-30T11:28:20;98806.81;;;16.14;48.83
7433;BME280;32233;49.500;7.764;2023-04-30T11:30:56;98802.78;;;16.34;46.64
7433;BME280;32233;49.500;7.764;2023-04-30T11:33:28;98797.22;;;16.48;46.36
7433;BME280;32233;49.500;7.764;2023-04-30T11:35:56;98788.69;;;16.81;45.87
7433;BME280;32233;49.500;7.764;2023-04-30T11:38:30;98786.66;;;16.53;46.07
7433;BME280;32233;49.500;7.764;2023-04-30T11:41:00;98794.56;;;15.94;47.55
7433;BME280;32233;49.500;7.764;2023-04-30T11:43:29;98786.13;;;15.97;48.54
7433;BME280;32233;49.500;7.764;2023-04-30T11:46:03;98787.31;;;16.01;49.23
7433;BME280;32233;49.500;7.764;2023-04-30T11:48:32;98785.53;;;15.95;48.70
7433;BME280;32233;49.500;7.764;2023-04-30T11:51:02;98787.41;;;16.06;47.93
7433;BME280;32233;49.500;7.764;2023-04-30T11:53:29;98787.13;;;16.26;47.06
7433;BME280;32233;49.500;7.764;2023-04-30T11:55:56;98776.94;;;16.70;45.96
7433;BME280;32233;49.500;7.764;2023-04-30T11:58:22;98785.25;;;16.27;46.28
7433;BME280;32233;49.500;7.764;2023-04-30T12:00:49;98776.81;;;15.58;48.23
7433;BME280;32233;49.500;7.764;2023-04-30T12:03:17;98778.69;;;15.99;46.11
7433;BME280;32233;49.500;7.764;2023-04-30T12:05:45;98767.81;;;18.49;41.33
7433;BME280;32233;49.500;7.764;2023-04-30T12:08:11;98771.75;;;19.19;38.90
7433;BME280;32233;49.500;7.764;2023-04-30T12:10:39;98755.13;;;19.93;37.91
7433;BME280;32233;49.500;7.764;2023-04-30T12:13:06;98754.13;;;19.50;36.62
7433;BME280;32233;49.500;7.764;2023-04-30T12:15:32;98757.13;;;20.40;34.59
7433;BME280;32233;49.500;7.764;2023-04-30T12:18:10;98753.41;;;20.46;35.01
7433;BME280;32233;49.500;7.764;2023-04-30T12:20:38;98761.75;;;19.37;36.87
7433;BME280;32233;49.500;7.764;2023-04-30T12:23:06;98754.31;;;17.77;42.21
7433;BME280;32233;49.500;7.764;2023-04-30T12:25:40;98744.75;;;19.26;40.89
7433;BME280;32233;49.500;7.764;2023-04-30T12:28:08;98745.97;;;18.58;41.87
7433;BME280;32233;49.500;7.764;2023-04-30T12:30:35;98746.84;;;17.79;43.69
7433;BME280;32233;49.500;7.764;2023-04-30T12:33:02;98748.19;;;17.24;45.09
7433;BME280;32233;49.500;7.764;2023-04-30T12:35:30;98739.47;;;16.77;44.91
7433;BME280;32233;49.500;7.764;2023-04-30T12:38:02;98737.59;;;16.89;45.72
7433;BME280;32233;49.500;7.764;2023-04-30T12:40:29;98736.91;;;16.70;47.08
7433;BME280;32233;49.500;7.764;2023-04-30T12:43:01;98742.78;;;17.19;44.41
7433;BME280;32233;49.500;7.764;2023-04-30T12:45:50;98744.00;;;16.88;43.14
7433;BME280;32233;49.500;7.764;2023-04-30T12:48:21;98736.81;;;17.86;43.33
7433;BME280;32233;49.500;7.764;2023-04-30T12:50:59;98725.88;;;18.38;43.72
7433;BME280;32233;49.500;7.764;2023-04-30T12:53:27;98721.63;;;18.59;42.54
7433;BME280;32233;49.500;7.764;2023-04-30T12:56:11;98726.63;;;19.11;40.69
7433;BME280;32233;49.500;7.764;2023-04-30T12:58:46;98723.84;;;18.12;42.05
7433;BME280;32233;49.500;7.764;2023-04-30T13:01:21;98725.97;;;18.10;43.96
7433;BME280;32233;49.500;7.764;2023-04-30T13:03:50;98724.34;;;17.34;42.78
7433;BME280;32233;49.500;7.764;2023-04-30T13:06:20;98723.31;;;17.64;42.45
7433;BME280;32233;49.500;7.764;2023-04-30T13:08:46;98722.25;;;17.37;43.29
7433;BME280;32233;49.500;7.764;2023-04-30T13:11:24;98712.59;;;18.10;41.26
7433;BME280;32233;49.500;7.764;2023-04-30T13:13:52;98714.91;;;18.95;45.08
7433;BME280;32233;49.500;7.764;2023-04-30T13:16:21;98711.78;;;18.81;39.36
7433;BME280;32233;49.500;7.764;2023-04-30T13:18:48;98713.97;;;18.46;45.88
7433;BME280;32233;49.500;7.764;2023-04-30T13:21:14;98713.53;;;18.93;41.22
7433;BME280;32233;49.500;7.764;2023-04-30T13:23:41;98710.47;;;19.06;42.08
7433;BME280;32233;49.500;7.764;2023-04-30T13:26:18;98711.06;;;19.84;36.43
7433;BME280;32233;49.500;7.764;2023-04-30T13:28:45;98699.59;;;19.62;40.12
7433;BME280;32233;49.500;7.764;2023-04-30T13:31:12;98699.41;;;20.00;38.81
7433;BME280;32233;49.500;7.764;2023-04-30T13:33:38;98694.41;;;19.06;39.78
7433;BME280;32233;49.500;7.764;2023-04-30T13:36:05;98695.91;;;18.58;41.18
7433;BME280;32233;49.500;7.764;2023-04-30T13:38:32;98701.41;;;18.13;42.78
7433;BME280;32233;49.500;7.764;2023-04-30T13:40:58;98691.28;;;18.70;40.04